ADDS METAR Data INFO
IDs: Format: Raw Decoded Include TAF

Data at: 1010 UTC 14 Dec 2017

KMAE 140953Z AUTO 00000KT 3SM BR CLR 02/01 A3009 RMK AO2 SLP189 T00170006
KMAE 140918Z AUTO 00000KT 3SM BR CLR 01/M01 A3009 RMK AO2 T00111006
KMAE 140853Z AUTO 00000KT 2SM BR CLR 01/M01 A3009 RMK AO2 SLP188 T00111006 58001
KMAE 140840Z AUTO 21003KT 2 1/2SM BR CLR 02/01 A3009 RMK AO2 T00170006
KMAE 140753Z AUTO 00000KT 5SM HZ CLR 04/02 A3010 RMK AO2 SLP192 T00440017 401721006
KMAE 140653Z AUTO 00000KT 4SM BR CLR 04/02 A3009 RMK AO2 SLP190 T00390017
KMAE 140553Z AUTO 08004KT 3SM HZ CLR 05/02 A3009 RMK AO2 SLP189 T00500022 10150 20033 53003
KMAE 140453Z AUTO 00000KT 4SM HZ CLR 04/02 A3009 RMK AO2 SLP189 T00440017
KMAE 140353Z AUTO 00000KT 4SM HZ CLR 06/02 A3008 RMK AO2 SLP186 T00560022
KMAE 140253Z AUTO 00000KT 4SM HZ CLR 07/03 A3008 RMK AO2 SLP187 T00670028 50000
KMAE 140153Z AUTO 00000KT 5SM HZ CLR 07/02 A3008 RMK AO2 SLP187 T00720022
KMAE 140053Z AUTO 30004KT 5SM HZ CLR 12/03 A3008 RMK AO2 SLP188 T01220033
KMAE 132353Z AUTO 30003KT 5SM HZ CLR 16/03 A3008 RMK AO2 SLP186 T01560033 10172 20100 56012
KMAE 132253Z AUTO 00000KT 5SM HZ CLR 17/03 A3009 RMK AO2 SLP187 T01670028
KMAE 132153Z AUTO 00000KT 5SM HZ CLR 17/03 A3009 RMK AO2 SLP189 T01670028
KMAE 132053Z AUTO VRB03KT 4SM HZ CLR 15/04 A3012 RMK AO2 SLP197 T01500039 58025
KMAE 131953Z AUTO 00000KT 4SM HZ CLR 14/04 A3015 RMK AO2 SLP209 T01390039
KMAE 131853Z AUTO 28003KT 3SM HZ CLR 12/04 A3018 RMK AO2 SLP219 T01220039
KMAE 131753Z AUTO 15005KT 4SM HZ CLR 09/02 A3019 RMK AO2 SLP222 T00940022 10094 21006 58004
KMAE 131653Z AUTO 00000KT 7SM CLR 06/02 A3021 RMK AO2 SLP232 T00560017 $
KMAE 131553Z AUTO 08003KT 5SM BR CLR 01/M01 A3020 RMK AO2 SLP229 T00111006 $
KMAE 131453Z AUTO 03003KT 7SM CLR 01/M01 A3020 RMK AO2 SLP227 T00061006 53003 $
KMAE 131353Z AUTO 00000KT 6SM BR CLR 00/M02 A3019 RMK AO2 SLP223 T00001022 $
KMAE 131253Z AUTO 08003KT 4SM BR CLR 01/00 A3018 RMK AO2 SLP220 T00110000 $
KMAE 131158Z AUTO 00000KT 3SM HZ CLR 01/M02 A3019 RMK AO2 T00111017 $
KMAE 131153Z AUTO 00000KT 1 3/4SM BR CLR 00/M02 A3019 RMK AO2 SLP223 6//// 7//// T00001017 10061 21006 58007 $
KMAE 131150Z AUTO 00000KT 1 3/4SM BR CLR 00/M02 A3019 RMK AO2 $
KMAE 131053Z AUTO 00000KT 3SM BR CLR 01/M01 A3021 RMK AO2 SLP228 T00061011 $
KMAE 131049Z AUTO 00000KT 3SM BR CLR 01/M01 A3021 RMK AO2 $
KMAE 131026Z AUTO 00000KT 2SM BR CLR 00/M02 A3021 RMK AO2 T00001017 $
KMAE 130953Z AUTO 00000KT 4SM BR 01/M01 A3021 RMK AO2 SLP231 T00061006 $
KMAE 130753Z AUTO 07005KT 6SM HZ CLR 04/02 A3021 RMK AO2 SLP229 T00440017 401720000
KMAE 130653Z AUTO 08003KT 6SM HZ CLR 04/01 A3021 RMK AO2 SLP231 T00440011
KMAE 130553Z AUTO 08003KT 5SM HZ CLR 05/02 A3022 RMK AO2 SLP232 T00500017 10167 20044 55000
KMAE 130453Z AUTO 09003KT 5SM HZ CLR 06/02 A3021 RMK AO2 SLP230 T00560017
KMAE 130353Z AUTO 00000KT 6SM HZ CLR 05/01 A3021 RMK AO2 SLP232 T00500011
KMAE 130253Z AUTO 00000KT 6SM HZ CLR 07/03 A3022 RMK AO2 SLP233 T00720028 50002
KMAE 130153Z AUTO 29003KT 7SM CLR 09/03 A3022 RMK AO2 SLP233 T00940033
KMAE 130053Z AUTO 31004KT 6SM HZ CLR 13/03 A3021 RMK AO2 SLP230 T01330033
KMAE 122353Z AUTO 00000KT 6SM HZ CLR 17/03 A3021 RMK AO2 SLP229 T01670033 10172 20100 56016
KMAE 122253Z AUTO 33003KT 5SM HZ CLR 17/03 A3022 RMK AO2 SLP233 T01720028